createdAt,value
2017-10-17T00:00:00.333Z,91.70
2017-10-17T00:02:28.273Z,91.70
2017-10-17T00:04:56.270Z,91.30
2017-10-17T00:07:24.227Z,91.10
2017-10-17T00:09:52.223Z,91.10
2017-10-17T00:12:20.176Z,90.40
2017-10-17T00:14:51.888Z,91.20
2017-10-17T00:17:19.844Z,91.60
2017-10-17T00:19:48.610Z,91.60
2017-10-17T00:22:16.556Z,91.60
2017-10-17T00:24:47.157Z,91.40
2017-10-17T00:27:15.164Z,91.10
2017-10-17T00:29:43.164Z,91.30
2017-10-17T00:32:11.122Z,90.80
2017-10-17T00:34:39.299Z,91.70
2017-10-17T00:37:07.272Z,91.40
2017-10-17T00:39:35.277Z,91.30
2017-10-17T00:42:03.998Z,91.70
2017-10-17T00:44:32.007Z,91.70
2017-10-17T00:46:59.960Z,91.60
2017-10-17T00:49:27.969Z,91.30
2017-10-17T00:51:55.957Z,91.00
2017-10-17T00:54:24.435Z,90.70
2017-10-17T00:56:52.401Z,91.40
2017-10-17T00:59:36.034Z,91.10
2017-10-17T01:02:03.985Z,91.10
2017-10-17T01:04:31.986Z,91.60
2017-10-17T01:06:59.950Z,90.90
2017-10-17T01:09:27.950Z,91.30
2017-10-17T01:11:55.897Z,91.60
2017-10-17T01:14:24.053Z,91.50
2017-10-17T01:16:52.014Z,91.40
2017-10-17T01:19:20.812Z,90.90
2017-10-17T01:21:49.539Z,89.90
2017-10-17T01:24:17.613Z,89.90
2017-10-17T01:26:45.568Z,90.10
2017-10-17T01:29:15.536Z,91.10
2017-10-17T01:31:44.263Z,91.30
2017-10-17T01:34:13.109Z,90.90
2017-10-17T01:36:41.933Z,91.20
2017-10-17T01:39:09.942Z,91.10
2017-10-17T01:41:37.943Z,91.40
2017-10-17T01:44:16.662Z,91.00
2017-10-17T01:46:47.497Z,90.50
2017-10-17T01:49:20.272Z,91.60
2017-10-17T01:51:50.913Z,90.80
2017-10-17T01:54:31.445Z,91.20
2017-10-17T01:56:59.397Z,90.90
2017-10-17T01:59:30.898Z,91.50
2017-10-17T02:01:58.866Z,90.70
2017-10-17T02:04:26.866Z,91.10
2017-10-17T02:06:55.600Z,91.00
2017-10-17T02:09:23.652Z,91.00
2017-10-17T02:11:51.637Z,91.10
2017-10-17T02:14:19.691Z,90.60
2017-10-17T02:16:47.655Z,91.10
2017-10-17T02:19:27.113Z,90.10
2017-10-17T02:21:58.836Z,90.50
2017-10-17T02:24:30.512Z,90.90
2017-10-17T02:26:59.297Z,91.40
2017-10-17T02:29:30.308Z,91.40
2017-10-17T02:31:58.363Z,91.20
2017-10-17T02:34:28.281Z,90.80
2017-10-17T02:36:56.240Z,91.70
2017-10-17T02:39:24.251Z,91.10
2017-10-17T02:41:52.260Z,91.20
2017-10-17T02:44:20.421Z,90.60
2017-10-17T02:46:48.376Z,90.90
2017-10-17T02:49:17.868Z,91.60
2017-10-17T02:51:45.826Z,91.40
2017-10-17T02:54:14.653Z,90.90
2017-10-17T02:56:42.657Z,91.10
2017-10-17T02:59:14.428Z,90.10
2017-10-17T03:01:48.897Z,90.80
2017-10-17T03:04:19.863Z,91.60
2017-10-17T03:06:47.847Z,91.10
2017-10-17T03:09:15.853Z,91.20
2017-10-17T03:11:43.814Z,91.40
2017-10-17T03:14:23.480Z,90.80
2017-10-17T03:16:51.447Z,90.90
2017-10-17T03:19:19.416Z,90.40
2017-10-17T03:21:48.317Z,90.40
2017-10-17T03:24:31.900Z,90.80
2017-10-17T03:26:59.911Z,90.80
2017-10-17T03:29:27.904Z,91.10
2017-10-17T03:31:55.897Z,90.70
2017-10-17T03:34:27.256Z,91.10
2017-10-17T03:36:58.875Z,90.90
2017-10-17T03:39:27.655Z,90.30
2017-10-17T03:41:57.327Z,90.30
2017-10-17T03:44:45.857Z,90.40
2017-10-17T03:47:16.662Z,90.70
2017-10-17T03:49:47.334Z,88.20
2017-10-17T03:52:16.129Z,90.80
2017-10-17T03:54:53.993Z,90.30
2017-10-17T03:57:25.627Z,90.50
2017-10-17T04:00:12.218Z,90.50
2017-10-17T04:02:40.232Z,90.70
2017-10-17T04:05:16.600Z,89.50
2017-10-17T04:07:48.774Z,90.20
2017-10-17T04:13:21.144Z,90.70
2017-10-17T04:15:56.196Z,90.80
2017-10-17T04:18:43.749Z,90.60
2017-10-17T04:21:12.781Z,89.50
2017-10-17T04:23:47.977Z,90.80
2017-10-17T04:26:27.813Z,91.00
2017-10-17T04:29:23.035Z,91.00
2017-10-17T04:31:58.361Z,88.70
2017-10-17T04:34:38.818Z,89.80
2017-10-17T04:37:28.458Z,90.40
2017-10-17T04:39:56.742Z,90.90
2017-10-17T04:42:50.171Z,89.80
2017-10-17T04:48:56.124Z,90.00
2017-10-17T04:51:27.812Z,89.60
2017-10-17T04:54:07.443Z,90.70
2017-10-17T04:56:35.438Z,89.20
2017-10-17T04:59:29.524Z,88.70
2017-10-17T05:05:07.627Z,90.00
2017-10-17T05:11:13.600Z,90.70
2017-10-17T05:17:03.086Z,90.40
2017-10-17T05:20:03.558Z,89.10
2017-10-17T05:22:46.347Z,88.70
2017-10-17T05:25:19.033Z,90.10
2017-10-17T05:28:04.351Z,90.10
2017-10-17T05:30:36.899Z,89.70
2017-10-17T05:33:08.638Z,90.90
2017-10-17T05:35:36.687Z,90.80
2017-10-17T05:38:04.716Z,90.70
2017-10-17T05:40:32.763Z,90.10
2017-10-17T05:43:00.749Z,89.70
2017-10-17T05:45:28.815Z,89.10
2017-10-17T05:47:59.577Z,90.20
2017-10-17T05:53:26.653Z,88.80
2017-10-17T05:55:54.654Z,90.60
2017-10-17T05:58:22.644Z,90.90
2017-10-17T06:00:51.407Z,88.90
2017-10-17T06:03:19.323Z,88.90
2017-10-17T06:05:47.567Z,90.20
2017-10-17T06:08:15.491Z,88.40
2017-10-17T06:10:43.448Z,89.70
2017-10-17T06:13:11.371Z,90.30
2017-10-17T06:15:39.350Z,88.50
2017-10-17T06:18:07.280Z,90.40
2017-10-17T06:20:35.268Z,90.30
2017-10-17T06:23:03.975Z,87.70
2017-10-17T06:25:32.770Z,90.30
2017-10-17T06:28:00.739Z,90.30
2017-10-17T06:30:28.718Z,87.90
2017-10-17T06:32:56.911Z,89.50
2017-10-17T06:35:24.926Z,90.50
2017-10-17T06:37:52.875Z,89.10
2017-10-17T06:40:20.841Z,89.20
2017-10-17T06:42:48.812Z,88.80
2017-10-17T06:45:16.799Z,87.90
2017-10-17T06:47:44.749Z,86.10
2017-10-17T06:50:12.691Z,87.30
2017-10-17T06:52:40.687Z,87.60
2017-10-17T06:55:21.489Z,86.10
2017-10-17T06:57:49.416Z,85.20
2017-10-17T07:00:17.408Z,85.50
2017-10-17T07:02:45.491Z,84.00
2017-10-17T07:05:13.497Z,83.40
2017-10-17T07:07:41.479Z,84.30
2017-10-17T07:10:10.168Z,83.70
2017-10-17T07:12:38.157Z,83.70
2017-10-17T07:15:06.086Z,81.80
2017-10-17T07:17:34.055Z,81.60
2017-10-17T07:20:02.021Z,82.00
2017-10-17T07:22:29.980Z,81.70
2017-10-17T07:24:58.251Z,79.80
2017-10-17T07:27:26.252Z,82.60
2017-10-17T07:29:55.026Z,79.30
2017-10-17T07:32:23.038Z,79.30
2017-10-17T07:34:51.011Z,80.90
2017-10-17T07:37:19.026Z,79.10
2017-10-17T07:39:46.986Z,77.00
2017-10-17T07:42:14.963Z,77.70
2017-10-17T07:44:42.902Z,78.90
2017-10-17T07:47:10.931Z,76.00
2017-10-17T07:49:38.885Z,74.90
2017-10-17T07:52:06.903Z,73.80
2017-10-17T07:54:34.924Z,71.60
2017-10-17T07:57:03.011Z,70.00
2017-10-17T07:59:30.938Z,67.20
2017-10-17T08:01:58.947Z,68.30
2017-10-17T08:04:26.948Z,68.00
2017-10-17T08:06:55.047Z,67.60
2017-10-17T08:09:23.057Z,66.10
2017-10-17T08:11:51.120Z,66.60
2017-10-17T08:14:19.097Z,65.80
2017-10-17T08:16:47.075Z,63.20
2017-10-17T08:19:14.993Z,62.00
2017-10-17T08:21:43.736Z,61.80
2017-10-17T08:24:11.857Z,61.80
2017-10-17T08:26:39.855Z,61.00
2017-10-17T08:29:07.781Z,59.40
2017-10-17T08:31:35.745Z,58.50
2017-10-17T08:34:04.444Z,57.60
2017-10-17T08:36:32.402Z,57.60
2017-10-17T08:39:00.370Z,57.20
2017-10-17T08:41:28.356Z,58.30
2017-10-17T08:43:56.298Z,59.60
2017-10-17T08:46:24.284Z,59.60
2017-10-17T08:48:52.276Z,59.70
2017-10-17T08:51:20.319Z,59.90
2017-10-17T08:53:49.010Z,57.60
2017-10-17T08:56:17.758Z,56.10
2017-10-17T08:58:45.668Z,56.10
2017-10-17T09:01:13.673Z,55.50
2017-10-17T09:03:41.657Z,55.80
2017-10-17T09:06:09.688Z,54.40
2017-10-17T09:08:37.634Z,55.40
2017-10-17T09:11:05.533Z,56.30
2017-10-17T09:13:33.499Z,56.20
2017-10-17T09:16:01.399Z,54.80
2017-10-17T09:18:29.405Z,53.70
2017-10-17T09:20:57.350Z,53.40
2017-10-17T09:23:25.362Z,53.60
2017-10-17T09:25:53.272Z,53.30
2017-10-17T09:28:21.245Z,53.10
2017-10-17T09:30:49.167Z,52.80
2017-10-17T09:33:17.925Z,53.40
2017-10-17T09:35:48.594Z,53.30
2017-10-17T09:38:16.675Z,54.80
2017-10-17T09:40:44.612Z,54.00
2017-10-17T09:43:12.593Z,54.60
2017-10-17T09:45:40.528Z,53.40
2017-10-17T09:48:10.644Z,54.20
2017-10-17T09:50:41.888Z,53.40
2017-10-17T09:53:11.930Z,54.50
2017-10-17T09:55:39.843Z,54.40
2017-10-17T09:58:07.810Z,54.20
2017-10-17T10:00:35.713Z,54.40
2017-10-17T10:03:07.302Z,53.60
2017-10-17T10:05:35.313Z,54.10
2017-10-17T10:08:03.345Z,53.50
2017-10-17T10:10:31.695Z,53.00
2017-10-17T10:13:00.273Z,53.30
2017-10-17T10:15:28.769Z,52.70
2017-10-17T10:17:56.790Z,53.20
2017-10-17T10:20:25.688Z,52.90
2017-10-17T10:22:53.648Z,50.60
2017-10-17T10:25:21.545Z,51.70
2017-10-17T10:27:49.562Z,50.40
2017-10-17T10:30:17.505Z,50.10
2017-10-17T10:32:45.493Z,50.80
2017-10-17T10:35:13.464Z,50.70
2017-10-17T10:37:41.430Z,50.10
2017-10-17T10:40:12.334Z,50.10
2017-10-17T10:42:41.264Z,51.00
2017-10-17T10:45:11.575Z,51.30
2017-10-17T10:47:39.752Z,49.90
2017-10-17T10:50:10.512Z,49.40
2017-10-17T10:52:38.475Z,49.40
2017-10-17T10:55:06.413Z,50.00
2017-10-17T10:57:34.385Z,47.80
2017-10-17T11:00:02.324Z,47.80
2017-10-17T11:02:30.327Z,47.30
2017-10-17T11:04:58.235Z,48.60
2017-10-17T11:07:26.212Z,47.30
2017-10-17T11:09:54.170Z,47.80
2017-10-17T11:12:22.113Z,47.70
2017-10-17T11:14:50.013Z,48.60
2017-10-17T11:17:18.026Z,48.00
2017-10-17T11:19:46.017Z,46.90
2017-10-17T11:22:14.049Z,47.10
2017-10-17T11:24:42.020Z,46.50
2017-10-17T11:27:10.772Z,46.50
2017-10-17T11:29:38.770Z,46.40
2017-10-17T11:32:07.541Z,46.40
2017-10-17T11:34:35.499Z,46.30
2017-10-17T11:37:03.629Z,46.00
2017-10-17T11:39:31.623Z,45.90
2017-10-17T11:42:11.246Z,47.00
2017-10-17T11:44:39.186Z,47.30
2017-10-17T11:47:07.995Z,47.60
2017-10-17T11:49:35.961Z,47.50
2017-10-17T11:52:04.046Z,48.40
2017-10-17T11:54:32.130Z,47.10
2017-10-17T11:57:00.206Z,46.90
2017-10-17T11:59:28.177Z,46.70
2017-10-17T12:01:56.124Z,48.60
2017-10-17T12:04:24.122Z,47.30
2017-10-17T12:06:52.164Z,47.70
2017-10-17T12:09:20.885Z,47.60
2017-10-17T12:11:48.859Z,47.60
2017-10-17T12:14:16.841Z,47.90
2017-10-17T12:16:44.772Z,48.10
2017-10-17T12:19:12.774Z,48.60
2017-10-17T12:21:40.757Z,48.70
2017-10-17T12:24:08.776Z,48.20
2017-10-17T12:26:36.752Z,48.50
2017-10-17T12:29:04.796Z,48.60
2017-10-17T12:31:32.822Z,47.90
2017-10-17T12:34:00.859Z,48.50
2017-10-17T12:36:28.819Z,49.60
2017-10-17T12:38:56.815Z,50.20
2017-10-17T12:41:24.740Z,49.90
2017-10-17T12:43:52.702Z,49.90
2017-10-17T12:46:20.670Z,49.80
2017-10-17T12:48:48.680Z,50.20
2017-10-17T12:51:18.575Z,50.20
2017-10-17T12:53:48.686Z,50.80
2017-10-17T12:56:16.594Z,50.80
2017-10-17T12:58:44.625Z,50.80
2017-10-17T13:01:12.523Z,50.50
2017-10-17T13:03:40.510Z,50.00
2017-10-17T13:06:08.426Z,51.00
2017-10-17T13:08:36.416Z,50.60
2017-10-17T13:11:04.369Z,51.20
2017-10-17T13:13:32.334Z,51.40
2017-10-17T13:16:00.317Z,51.70
2017-10-17T13:18:28.347Z,51.30
2017-10-17T13:20:56.276Z,50.70
2017-10-17T13:23:24.292Z,51.80
2017-10-17T13:25:52.218Z,52.00
2017-10-17T13:28:20.175Z,52.80
2017-10-17T13:30:48.109Z,53.70
2017-10-17T13:33:17.295Z,52.80
2017-10-17T13:35:45.309Z,52.60
2017-10-17T13:38:13.275Z,53.00
2017-10-17T13:40:41.263Z,53.70
2017-10-17T13:43:09.246Z,53.70
2017-10-17T13:45:38.842Z,52.70
2017-10-17T13:48:06.826Z,53.60
2017-10-17T13:50:35.505Z,54.50
2017-10-17T13:53:04.292Z,54.10
2017-10-17T13:55:32.250Z,54.00
2017-10-17T13:58:00.221Z,54.90
2017-10-17T14:00:28.161Z,55.80
2017-10-17T14:02:56.151Z,55.40
2017-10-17T14:05:24.070Z,55.00
2017-10-17T14:07:52.084Z,55.50
2017-10-17T14:10:20.076Z,56.20
2017-10-17T14:12:48.884Z,56.70
2017-10-17T14:15:16.879Z,56.60
2017-10-17T14:17:44.861Z,59.30
2017-10-17T14:20:12.798Z,59.80
2017-10-17T14:22:40.801Z,60.30
2017-10-17T14:25:08.764Z,65.00
2017-10-17T14:27:36.754Z,65.40
2017-10-17T14:30:04.678Z,66.20
2017-10-17T14:32:32.647Z,67.30
2017-10-17T14:35:06.413Z,69.80
2017-10-17T14:37:34.404Z,70.90
2017-10-17T14:40:02.370Z,71.80
2017-10-17T14:42:30.311Z,72.30
2017-10-17T14:44:58.352Z,73.00
2017-10-17T14:47:26.321Z,72.90
2017-10-17T14:49:54.319Z,72.80
2017-10-17T14:52:22.306Z,73.90
2017-10-17T14:54:50.304Z,73.70
2017-10-17T14:57:21.609Z,75.70
2017-10-17T14:59:50.421Z,75.70
2017-10-17T15:02:19.150Z,76.40
2017-10-17T15:04:47.200Z,77.60
2017-10-17T15:07:17.172Z,77.60
2017-10-17T15:09:46.603Z,77.60
2017-10-17T15:12:14.607Z,78.10
2017-10-17T15:14:42.603Z,78.90
2017-10-17T15:17:10.549Z,78.90
2017-10-17T15:19:38.566Z,80.00
2017-10-17T15:22:06.499Z,80.50
2017-10-17T15:24:34.603Z,79.50
2017-10-17T15:27:02.533Z,80.70
2017-10-17T15:29:30.562Z,81.60
2017-10-17T15:31:58.505Z,82.40
2017-10-17T15:34:26.495Z,82.60
2017-10-17T15:36:54.414Z,83.20
2017-10-17T15:39:22.393Z,84.10
2017-10-17T15:41:50.337Z,84.40
2017-10-17T15:44:19.104Z,85.00
2017-10-17T15:46:47.044Z,85.00
2017-10-17T15:49:15.042Z,84.60
2017-10-17T15:51:42.947Z,85.90
2017-10-17T15:54:12.099Z,86.50
2017-10-17T15:56:40.053Z,86.80
2017-10-17T15:59:08.109Z,85.50
2017-10-17T16:01:36.071Z,85.90
2017-10-17T16:04:04.098Z,86.00
2017-10-17T16:06:32.038Z,86.30
2017-10-17T16:09:00.645Z,85.50
2017-10-17T16:11:28.831Z,86.40
2017-10-17T16:13:56.831Z,86.50
2017-10-17T16:16:24.751Z,87.60
2017-10-17T16:18:52.812Z,88.90
2017-10-17T16:21:23.855Z,88.50
2017-10-17T16:23:59.653Z,88.00
2017-10-17T16:26:28.695Z,88.10
2017-10-17T16:28:56.680Z,88.10
2017-10-17T16:31:24.677Z,87.60
2017-10-17T16:33:52.751Z,88.30
2017-10-17T16:36:21.595Z,90.10
2017-10-17T16:38:49.750Z,90.10
2017-10-17T16:41:17.752Z,89.90
2017-10-17T16:43:48.713Z,88.90
2017-10-17T16:46:16.938Z,88.60
2017-10-17T16:48:45.044Z,88.40
2017-10-17T16:51:13.041Z,89.20
2017-10-17T16:53:41.194Z,89.20
2017-10-17T16:56:09.256Z,90.10
2017-10-17T16:58:37.351Z,89.10
2017-10-17T17:01:05.388Z,88.30
2017-10-17T17:03:33.583Z,89.00
2017-10-17T17:06:01.590Z,90.50
2017-10-17T17:08:30.394Z,88.60
2017-10-17T17:10:58.509Z,87.80
2017-10-17T17:13:26.603Z,88.50
2017-10-17T17:15:54.744Z,88.30
2017-10-17T17:18:23.088Z,88.90
2017-10-17T17:20:51.088Z,90.10
2017-10-17T17:23:19.319Z,90.80
2017-10-17T17:25:47.324Z,89.30
2017-10-17T17:28:15.303Z,88.30
2017-10-17T17:30:43.361Z,88.70
2017-10-17T17:33:11.383Z,88.40
2017-10-17T17:35:39.435Z,89.10
2017-10-17T17:38:07.521Z,89.30
2017-10-17T17:40:35.655Z,89.20
2017-10-17T17:43:03.773Z,89.20
2017-10-17T17:45:31.810Z,87.40
2017-10-17T17:47:59.868Z,87.70
2017-10-17T17:50:28.004Z,89.90
2017-10-17T17:52:56.172Z,90.10
2017-10-17T17:55:24.300Z,87.30
2017-10-17T17:57:53.160Z,88.00
2017-10-17T18:00:21.351Z,88.00
2017-10-17T18:02:49.539Z,88.40
2017-10-17T18:05:17.895Z,87.80
2017-10-17T18:07:46.756Z,89.80
2017-10-17T18:10:14.884Z,89.70
2017-10-17T18:12:43.732Z,90.20
2017-10-17T18:15:11.931Z,90.20
2017-10-17T18:17:40.115Z,87.00
2017-10-17T18:20:08.230Z,88.50
2017-10-17T18:22:39.809Z,89.50
2017-10-17T18:25:09.602Z,90.00
2017-10-17T18:27:38.962Z,90.20
2017-10-17T18:30:08.094Z,88.00
2017-10-17T18:32:37.529Z,87.70
2017-10-17T18:35:06.746Z,89.20
2017-10-17T18:37:37.074Z,89.30
2017-10-17T18:40:05.976Z,89.10
2017-10-17T18:42:34.322Z,88.80
2017-10-17T18:45:02.832Z,88.40
2017-10-17T18:47:32.772Z,87.50
2017-10-17T18:50:01.312Z,87.50
2017-10-17T18:52:30.760Z,88.30
2017-10-17T18:54:59.582Z,89.20
2017-10-17T18:57:28.105Z,88.60
2017-10-17T18:59:58.083Z,87.90
2017-10-17T19:02:27.792Z,86.20
2017-10-17T19:05:00.221Z,87.50
2017-10-17T19:07:29.633Z,88.70
2017-10-17T19:09:59.855Z,89.30
2017-10-17T19:12:28.804Z,87.90
2017-10-17T19:14:58.042Z,88.10
2017-10-17T19:17:27.431Z,87.90
2017-10-17T19:19:56.828Z,89.00
2017-10-17T19:22:25.995Z,87.70
2017-10-17T19:24:54.645Z,88.30
2017-10-17T19:27:24.468Z,88.40
2017-10-17T19:29:53.066Z,87.90
2017-10-17T19:32:21.728Z,89.30
2017-10-17T19:34:50.977Z,87.60
2017-10-17T19:37:20.234Z,86.80
2017-10-17T19:39:48.988Z,88.90
2017-10-17T19:42:17.609Z,88.00
2017-10-17T19:44:46.853Z,89.00
2017-10-17T19:47:15.484Z,87.80
2017-10-17T19:49:43.809Z,89.70
2017-10-17T19:52:12.538Z,87.00
2017-10-17T19:54:41.118Z,86.50
2017-10-17T19:57:09.801Z,88.30
2017-10-17T19:59:38.571Z,87.20
2017-10-17T20:02:07.729Z,89.30
2017-10-17T20:04:36.024Z,88.20
2017-10-17T20:07:04.703Z,87.50
2017-10-17T20:09:33.377Z,86.60
2017-10-17T20:12:01.856Z,86.10
2017-10-17T20:14:31.623Z,88.90
2017-10-17T20:16:59.627Z,89.80
2017-10-17T20:19:27.641Z,89.80
2017-10-17T20:21:55.651Z,87.70
2017-10-17T20:24:23.660Z,86.40
2017-10-17T20:26:52.401Z,87.20
2017-10-17T20:29:21.235Z,88.30
2017-10-17T20:31:49.201Z,88.00
2017-10-17T20:34:17.393Z,88.70
2017-10-17T20:36:45.338Z,87.40
2017-10-17T20:39:14.313Z,88.10
2017-10-17T20:41:43.058Z,88.10
2017-10-17T20:44:11.120Z,88.10
2017-10-17T20:46:42.279Z,89.10
2017-10-17T20:49:10.511Z,87.90
2017-10-17T20:51:39.044Z,86.80
2017-10-17T20:54:07.710Z,89.20
2017-10-17T20:56:35.719Z,89.80
2017-10-17T20:59:03.799Z,89.40
2017-10-17T21:01:32.544Z,87.10
2017-10-17T21:04:02.219Z,89.00
2017-10-17T21:06:32.326Z,89.00
2017-10-17T21:09:00.418Z,88.60
2017-10-17T21:11:28.419Z,89.60
2017-10-17T21:13:59.401Z,87.40
2017-10-17T21:16:27.400Z,89.30
2017-10-17T21:18:56.855Z,88.70
2017-10-17T21:21:24.862Z,89.50
2017-10-17T21:23:52.875Z,89.00
2017-10-17T21:26:20.898Z,89.90
2017-10-17T21:28:48.878Z,89.30
2017-10-17T21:31:16.943Z,89.50
2017-10-17T21:33:45.667Z,89.90
2017-10-17T21:36:13.744Z,89.90
2017-10-17T21:38:42.521Z,89.80
2017-10-17T21:41:10.571Z,89.80
2017-10-17T21:43:38.716Z,89.10
2017-10-17T21:46:06.721Z,89.30
2017-10-17T21:48:35.149Z,89.20
2017-10-17T21:51:03.167Z,90.30
2017-10-17T21:53:31.880Z,89.90
2017-10-17T21:55:59.877Z,89.90
2017-10-17T21:58:27.817Z,89.20
2017-10-17T22:01:02.504Z,90.10
2017-10-17T22:03:31.237Z,90.10
2017-10-17T22:05:59.240Z,90.10
2017-10-17T22:08:27.200Z,90.30
2017-10-17T22:10:55.184Z,90.40
2017-10-17T22:13:23.119Z,90.60
2017-10-17T22:15:51.117Z,90.80
2017-10-17T22:18:19.043Z,90.70
2017-10-17T22:20:47.037Z,90.40
2017-10-17T22:23:15.009Z,90.40
2017-10-17T22:25:43.005Z,90.40
2017-10-17T22:28:10.962Z,90.40
2017-10-17T22:30:38.976Z,90.00
2017-10-17T22:33:10.849Z,90.20
2017-10-17T22:35:39.600Z,90.00
2017-10-17T22:38:07.606Z,90.00
2017-10-17T22:40:35.606Z,90.20
2017-10-17T22:43:03.553Z,90.10
2017-10-17T22:45:31.542Z,88.90
2017-10-17T22:47:59.479Z,89.80
2017-10-17T22:50:28.316Z,90.10
2017-10-17T22:52:56.277Z,90.10
2017-10-17T22:55:24.290Z,90.10
2017-10-17T22:57:52.220Z,90.30
2017-10-17T23:00:20.293Z,90.20
2017-10-17T23:02:48.248Z,89.70
2017-10-17T23:05:16.235Z,89.90
2017-10-17T23:07:44.209Z,90.00
2017-10-17T23:10:12.273Z,90.50
2017-10-17T23:12:40.244Z,90.50
2017-10-17T23:15:08.285Z,90.30
2017-10-17T23:17:48.995Z,89.70
2017-10-17T23:20:28.724Z,89.40
2017-10-17T23:22:56.664Z,90.20
2017-10-17T23:25:24.637Z,90.80
2017-10-17T23:27:53.074Z,90.80
2017-10-17T23:30:22.357Z,90.20
2017-10-17T23:32:51.775Z,90.10
2017-10-17T23:35:22.227Z,90.10
2017-10-17T23:37:51.586Z,90.30
2017-10-17T23:40:20.752Z,89.90
2017-10-17T23:42:48.795Z,90.50
2017-10-17T23:45:20.696Z,89.70
2017-10-17T23:47:48.772Z,90.60
2017-10-17T23:50:16.712Z,90.60
2017-10-17T23:52:44.727Z,91.00
2017-10-17T23:55:12.908Z,90.70
2017-10-17T23:57:40.911Z,89.10
